sensor_id;sensor_type;location;lat;lon;timestamp;temperature;humidity
67799;SHT30;54596;43.216;27.904;2022-08-04T00:00:18;21.47;76.84
67799;SHT30;54596;43.216;27.904;2022-08-04T00:02:51;21.40;76.83
67799;SHT30;54596;43.216;27.904;2022-08-04T00:05:51;21.34;76.98
67799;SHT30;54596;43.216;27.904;2022-08-04T00:10:48;21.36;76.53
67799;SHT30;54596;43.216;27.904;2022-08-04T00:13:16;21.40;76.44
67799;SHT30;54596;43.216;27.904;2022-08-04T00:15:49;21.40;76.29
67799;SHT30;54596;43.216;27.904;2022-08-04T00:18:20;21.43;75.94
67799;SHT30;54596;43.216;27.904;2022-08-04T00:20:46;21.43;76.11
67799;SHT30;54596;43.216;27.904;2022-08-04T00:23:12;21.43;75.99
67799;SHT30;54596;43.216;27.904;2022-08-04T00:25:39;21.40;75.93
67799;SHT30;54596;43.216;27.904;2022-08-04T00:28:08;21.44;75.75
67799;SHT30;54596;43.216;27.904;2022-08-04T00:30:34;21.43;75.73
67799;SHT30;54596;43.216;27.904;2022-08-04T00:33:00;21.47;75.41
67799;SHT30;54596;43.216;27.904;2022-08-04T00:35:27;21.50;75.06
67799;SHT30;54596;43.216;27.904;2022-08-04T00:37:53;21.53;74.95
67799;SHT30;54596;43.216;27.904;2022-08-04T00:40:49;21.48;74.93
67799;SHT30;54596;43.216;27.904;2022-08-04T00:43:32;21.47;74.95
67799;SHT30;54596;43.216;27.904;2022-08-04T00:51:46;21.37;75.29
67799;SHT30;54596;43.216;27.904;2022-08-04T00:59:43;21.37;75.10
67799;SHT30;54596;43.216;27.904;2022-08-04T01:02:36;21.39;74.98
67799;SHT30;54596;43.216;27.904;2022-08-04T01:05:06;21.31;75.19
67799;SHT30;54596;43.216;27.904;2022-08-04T01:10:04;21.29;75.13
67799;SHT30;54596;43.216;27.904;2022-08-04T01:15:16;21.27;75.13
67799;SHT30;54596;43.216;27.904;2022-08-04T01:20:26;21.26;75.36
67799;SHT30;54596;43.216;27.904;2022-08-04T01:26:31;21.24;75.37
67799;SHT30;54596;43.216;27.904;2022-08-04T01:29:08;21.23;75.73
67799;SHT30;54596;43.216;27.904;2022-08-04T01:31:47;21.18;76.11
67799;SHT30;54596;43.216;27.904;2022-08-04T01:34:16;21.19;76.30
67799;SHT30;54596;43.216;27.904;2022-08-04T01:37:02;21.13;76.93
67799;SHT30;54596;43.216;27.904;2022-08-04T01:39:49;21.09;77.02
67799;SHT30;54596;43.216;27.904;2022-08-04T01:42:17;21.09;77.37
67799;SHT30;54596;43.216;27.904;2022-08-04T01:44:47;21.03;77.86
67799;SHT30;54596;43.216;27.904;2022-08-04T01:47:16;20.95;78.17
67799;SHT30;54596;43.216;27.904;2022-08-04T01:49:45;20.91;78.47
67799;SHT30;54596;43.216;27.904;2022-08-04T01:52:15;20.88;78.63
67799;SHT30;54596;43.216;27.904;2022-08-04T01:54:41;20.84;78.73
67799;SHT30;54596;43.216;27.904;2022-08-04T01:57:09;20.79;78.80
67799;SHT30;54596;43.216;27.904;2022-08-04T01:59:37;20.84;78.50
67799;SHT30;54596;43.216;27.904;2022-08-04T02:02:06;20.86;78.29
67799;SHT30;54596;43.216;27.904;2022-08-04T02:04:31;20.88;78.11
67799;SHT30;54596;43.216;27.904;2022-08-04T02:10:03;20.81;78.08
67799;SHT30;54596;43.216;27.904;2022-08-04T02:15:15;20.61;78.28
67799;SHT30;54596;43.216;27.904;2022-08-04T02:20:24;20.48;78.10
67799;SHT30;54596;43.216;27.904;2022-08-04T02:22:57;20.43;78.27
67799;SHT30;54596;43.216;27.904;2022-08-04T02:25:25;20.43;77.76
67799;SHT30;54596;43.216;27.904;2022-08-04T02:28:21;20.40;77.77
67799;SHT30;54596;43.216;27.904;2022-08-04T02:33:55;20.40;77.52
67799;SHT30;54596;43.216;27.904;2022-08-04T02:36:30;20.40;77.47
67799;SHT30;54596;43.216;27.904;2022-08-04T02:41:23;20.40;77.60
67799;SHT30;54596;43.216;27.904;2022-08-04T02:43:51;20.40;77.50
67799;SHT30;54596;43.216;27.904;2022-08-04T02:46:20;20.45;77.52
67799;SHT30;54596;43.216;27.904;2022-08-04T02:48:47;20.45;77.75
67799;SHT30;54596;43.216;27.904;2022-08-04T02:51:15;20.44;78.09
67799;SHT30;54596;43.216;27.904;2022-08-04T02:53:42;20.50;78.57
67799;SHT30;54596;43.216;27.904;2022-08-04T02:56:10;20.54;78.73
67799;SHT30;54596;43.216;27.904;2022-08-04T02:58:37;20.55;78.93
67799;SHT30;54596;43.216;27.904;2022-08-04T03:01:03;20.54;78.88
67799;SHT30;54596;43.216;27.904;2022-08-04T03:03:50;20.54;78.76
67799;SHT30;54596;43.216;27.904;2022-08-04T03:51:00;20.95;75.19
67799;SHT30;54596;43.216;27.904;2022-08-04T03:59:49;20.99;74.41
67799;SHT30;54596;43.216;27.904;2022-08-04T04:03:22;20.99;74.48
67799;SHT30;54596;43.216;27.904;2022-08-04T04:14:15;21.34;73.34
67799;SHT30;54596;43.216;27.904;2022-08-04T04:33:19;21.92;71.52
67799;SHT30;54596;43.216;27.904;2022-08-04T04:36:02;21.98;71.00
67799;SHT30;54596;43.216;27.904;2022-08-04T04:47:21;22.50;69.67
67799;SHT30;54596;43.216;27.904;2022-08-04T04:49:50;22.58;69.46
67799;SHT30;54596;43.216;27.904;2022-08-04T04:52:52;22.68;69.32
67799;SHT30;54596;43.216;27.904;2022-08-04T04:55:27;22.82;68.93
67799;SHT30;54596;43.216;27.904;2022-08-04T04:57:59;22.99;68.44
67799;SHT30;54596;43.216;27.904;2022-08-04T05:06:05;23.51;66.45
67799;SHT30;54596;43.216;27.904;2022-08-04T05:16:56;24.30;64.11
67799;SHT30;54596;43.216;27.904;2022-08-04T05:19:39;24.54;62.61
67799;SHT30;54596;43.216;27.904;2022-08-04T05:22:13;24.79;62.30
67799;SHT30;54596;43.216;27.904;2022-08-04T05:24:43;25.03;60.66
67799;SHT30;54596;43.216;27.904;2022-08-04T05:27:14;25.22;60.39
67799;SHT30;54596;43.216;27.904;2022-08-04T05:30:02;25.47;60.07
67799;SHT30;54596;43.216;27.904;2022-08-04T05:32:37;25.84;59.28
67799;SHT30;54596;43.216;27.904;2022-08-04T05:35:10;26.57;57.39
67799;SHT30;54596;43.216;27.904;2022-08-04T05:37:39;28.40;53.11
67799;SHT30;54596;43.216;27.904;2022-08-04T05:40:06;30.94;47.61
67799;SHT30;54596;43.216;27.904;2022-08-04T05:42:36;33.23;43.10
67799;SHT30;54596;43.216;27.904;2022-08-04T05:45:03;34.34;40.69
67799;SHT30;54596;43.216;27.904;2022-08-04T05:47:31;35.55;39.00
67799;SHT30;54596;43.216;27.904;2022-08-04T05:49:59;35.58;38.52
67799;SHT30;54596;43.216;27.904;2022-08-04T05:52:26;36.66;36.99
67799;SHT30;54596;43.216;27.904;2022-08-04T05:54:52;36.94;36.62
67799;SHT30;54596;43.216;27.904;2022-08-04T05:57:19;37.03;36.56
67799;SHT30;54596;43.216;27.904;2022-08-04T05:59:45;37.18;35.94
67799;SHT30;54596;43.216;27.904;2022-08-04T06:02:13;37.55;35.47
67799;SHT30;54596;43.216;27.904;2022-08-04T06:04:41;37.61;35.51
67799;SHT30;54596;43.216;27.904;2022-08-04T06:07:08;38.01;34.75
67799;SHT30;54596;43.216;27.904;2022-08-04T06:09:36;37.81;35.15
67799;SHT30;54596;43.216;27.904;2022-08-04T06:12:05;37.68;34.99
67799;SHT30;54596;43.216;27.904;2022-08-04T06:14:35;37.54;35.33
67799;SHT30;54596;43.216;27.904;2022-08-04T06:17:05;37.81;34.82
67799;SHT30;54596;43.216;27.904;2022-08-04T06:19:34;38.29;34.45
67799;SHT30;54596;43.216;27.904;2022-08-04T06:22:02;38.29;34.19
67799;SHT30;54596;43.216;27.904;2022-08-04T06:24:30;38.81;33.78
67799;SHT30;54596;43.216;27.904;2022-08-04T06:26:56;38.41;34.14
67799;SHT30;54596;43.216;27.904;2022-08-04T06:29:23;38.32;34.51
67799;SHT30;54596;43.216;27.904;2022-08-04T06:32:00;38.60;34.06
67799;SHT30;54596;43.216;27.904;2022-08-04T06:34:29;38.67;34.33
67799;SHT30;54596;43.216;27.904;2022-08-04T06:36:59;37.54;35.71
67799;SHT30;54596;43.216;27.904;2022-08-04T06:39:26;38.11;34.86
67799;SHT30;54596;43.216;27.904;2022-08-04T06:41:54;39.01;34.08
67799;SHT30;54596;43.216;27.904;2022-08-04T06:44:21;39.53;33.32
67799;SHT30;54596;43.216;27.904;2022-08-04T06:46:47;39.51;32.81
67799;SHT30;54596;43.216;27.904;2022-08-04T06:49:13;40.68;31.64
67799;SHT30;54596;43.216;27.904;2022-08-04T06:51:40;41.05;31.36
67799;SHT30;54596;43.216;27.904;2022-08-04T06:54:06;40.70;31.55
67799;SHT30;54596;43.216;27.904;2022-08-04T06:56:33;41.09;31.21
67799;SHT30;54596;43.216;27.904;2022-08-04T06:59:03;41.16;30.79
67799;SHT30;54596;43.216;27.904;2022-08-04T07:01:29;41.25;30.43
67799;SHT30;54596;43.216;27.904;2022-08-04T07:03:55;41.23;30.59
67799;SHT30;54596;43.216;27.904;2022-08-04T07:06:21;42.32;29.85
67799;SHT30;54596;43.216;27.904;2022-08-04T07:08:48;42.44;29.56
67799;SHT30;54596;43.216;27.904;2022-08-04T07:11:14;42.54;29.28
67799;SHT30;54596;43.216;27.904;2022-08-04T07:13:42;42.68;29.11
67799;SHT30;54596;43.216;27.904;2022-08-04T07:16:12;42.15;29.80
67799;SHT30;54596;43.216;27.904;2022-08-04T07:18:38;43.21;28.21
67799;SHT30;54596;43.216;27.904;2022-08-04T07:21:04;43.32;28.21
67799;SHT30;54596;43.216;27.904;2022-08-04T07:23:30;42.88;28.30
67799;SHT30;54596;43.216;27.904;2022-08-04T07:25:57;43.33;27.81
67799;SHT30;54596;43.216;27.904;2022-08-04T07:28:25;44.04;27.53
67799;SHT30;54596;43.216;27.904;2022-08-04T07:30:52;43.43;27.68
67799;SHT30;54596;43.216;27.904;2022-08-04T07:33:18;42.60;28.64
67799;SHT30;54596;43.216;27.904;2022-08-04T07:35:45;42.66;28.39
67799;SHT30;54596;43.216;27.904;2022-08-04T07:38:11;43.32;27.93
67799;SHT30;54596;43.216;27.904;2022-08-04T07:40:38;43.18;28.38
67799;SHT30;54596;43.216;27.904;2022-08-04T07:43:04;43.84;27.76
67799;SHT30;54596;43.216;27.904;2022-08-04T07:45:31;43.91;27.67
67799;SHT30;54596;43.216;27.904;2022-08-04T07:47:56;44.74;26.60
67799;SHT30;54596;43.216;27.904;2022-08-04T07:50:23;43.82;27.60
67799;SHT30;54596;43.216;27.904;2022-08-04T07:52:50;44.56;26.71
67799;SHT30;54596;43.216;27.904;2022-08-04T07:55:16;45.64;25.68
67799;SHT30;54596;43.216;27.904;2022-08-04T07:57:42;45.36;25.81
67799;SHT30;54596;43.216;27.904;2022-08-04T08:00:09;46.43;25.05
67799;SHT30;54596;43.216;27.904;2022-08-04T08:02:35;46.35;25.11
67799;SHT30;54596;43.216;27.904;2022-08-04T08:05:01;45.36;25.97
67799;SHT30;54596;43.216;27.904;2022-08-04T08:07:27;44.26;27.00
67799;SHT30;54596;43.216;27.904;2022-08-04T08:09:52;38.36;33.33
67799;SHT30;54596;43.216;27.904;2022-08-04T08:12:18;40.76;30.96
67799;SHT30;54596;43.216;27.904;2022-08-04T08:14:44;41.33;29.61
67799;SHT30;54596;43.216;27.904;2022-08-04T08:17:10;42.68;28.41
67799;SHT30;54596;43.216;27.904;2022-08-04T08:19:36;39.68;31.54
67799;SHT30;54596;43.216;27.904;2022-08-04T08:22:03;40.33;31.04
67799;SHT30;54596;43.216;27.904;2022-08-04T08:24:30;39.94;31.47
67799;SHT30;54596;43.216;27.904;2022-08-04T08:26:57;38.99;32.32
67799;SHT30;54596;43.216;27.904;2022-08-04T08:29:23;38.68;32.42
67799;SHT30;54596;43.216;27.904;2022-08-04T08:31:50;38.09;33.43
67799;SHT30;54596;43.216;27.904;2022-08-04T08:34:15;38.06;33.50
67799;SHT30;54596;43.216;27.904;2022-08-04T08:36:47;38.17;33.38
67799;SHT30;54596;43.216;27.904;2022-08-04T08:39:35;36.84;34.66
67799;SHT30;54596;43.216;27.904;2022-08-04T08:45:04;34.89;37.86
67799;SHT30;54596;43.216;27.904;2022-08-04T08:53:26;34.72;38.32
67799;SHT30;54596;43.216;27.904;2022-08-04T09:01:34;32.85;39.95
67799;SHT30;54596;43.216;27.904;2022-08-04T09:12:21;32.38;41.97
67799;SHT30;54596;43.216;27.904;2022-08-04T09:14:54;33.12;40.24
67799;SHT30;54596;43.216;27.904;2022-08-04T09:17:30;33.00;40.25
67799;SHT30;54596;43.216;27.904;2022-08-04T09:20:06;33.27;39.87
67799;SHT30;54596;43.216;27.904;2022-08-04T09:25:41;32.69;40.61
67799;SHT30;54596;43.216;27.904;2022-08-04T09:28:18;32.48;41.22
67799;SHT30;54596;43.216;27.904;2022-08-04T09:30:54;32.38;41.87
67799;SHT30;54596;43.216;27.904;2022-08-04T09:46:32;31.45;43.08
67799;SHT30;54596;43.216;27.904;2022-08-04T09:49:04;31.52;43.19
67799;SHT30;54596;43.216;27.904;2022-08-04T09:51:42;31.21;43.76
67799;SHT30;54596;43.216;27.904;2022-08-04T09:54:54;31.37;43.37
67799;SHT30;54596;43.216;27.904;2022-08-04T09:59:57;31.96;42.07
67799;SHT30;54596;43.216;27.904;2022-08-04T10:02:31;32.17;41.50
67799;SHT30;54596;43.216;27.904;2022-08-04T10:04:59;32.17;41.70
67799;SHT30;54596;43.216;27.904;2022-08-04T10:10:25;31.34;44.23
67799;SHT30;54596;43.216;27.904;2022-08-04T10:15:50;30.59;55.38
67799;SHT30;54596;43.216;27.904;2022-08-04T10:26:57;29.45;57.45
67799;SHT30;54596;43.216;27.904;2022-08-04T10:29:28;29.55;57.46
67799;SHT30;54596;43.216;27.904;2022-08-04T10:32:10;29.19;57.75
67799;SHT30;54596;43.216;27.904;2022-08-04T10:34:42;28.91;58.33
67799;SHT30;54596;43.216;27.904;2022-08-04T10:37:24;28.62;59.34
67799;SHT30;54596;43.216;27.904;2022-08-04T10:40:03;28.27;60.66
67799;SHT30;54596;43.216;27.904;2022-08-04T10:43:00;28.36;60.86
67799;SHT30;54596;43.216;27.904;2022-08-04T10:46:33;28.52;63.08
67799;SHT30;54596;43.216;27.904;2022-08-04T10:51:17;28.75;63.11
67799;SHT30;54596;43.216;27.904;2022-08-04T10:53:46;28.40;63.74
67799;SHT30;54596;43.216;27.904;2022-08-04T10:56:21;28.34;64.15
67799;SHT30;54596;43.216;27.904;2022-08-04T10:58:57;28.10;65.27
67799;SHT30;54596;43.216;27.904;2022-08-04T11:01:28;27.95;66.20
67799;SHT30;54596;43.216;27.904;2022-08-04T11:03:59;27.77;65.99
67799;SHT30;54596;43.216;27.904;2022-08-04T11:06:26;27.58;66.87
67799;SHT30;54596;43.216;27.904;2022-08-04T11:08:55;27.26;67.88
67799;SHT30;54596;43.216;27.904;2022-08-04T11:14:07;27.40;68.40
67799;SHT30;54596;43.216;27.904;2022-08-04T11:16:52;27.52;67.50
67799;SHT30;54596;43.216;27.904;2022-08-04T11:22:05;27.48;66.76
67799;SHT30;54596;43.216;27.904;2022-08-04T11:24:39;27.43;66.67
67799;SHT30;54596;43.216;27.904;2022-08-04T11:27:14;27.40;66.23
67799;SHT30;54596;43.216;27.904;2022-08-04T11:32:19;27.44;67.10
67799;SHT30;54596;43.216;27.904;2022-08-04T11:34:52;27.37;67.47
67799;SHT30;54596;43.216;27.904;2022-08-04T11:37:31;27.45;67.45
67799;SHT30;54596;43.216;27.904;2022-08-04T11:42:54;27.66;67.53
67799;SHT30;54596;43.216;27.904;2022-08-04T11:45:29;27.58;68.44
67799;SHT30;54596;43.216;27.904;2022-08-04T11:48:10;27.55;68.48
67799;SHT30;54596;43.216;27.904;2022-08-04T11:50:56;27.37;69.13
67799;SHT30;54596;43.216;27.904;2022-08-04T11:53:25;27.26;68.84
67799;SHT30;54596;43.216;27.904;2022-08-04T11:55:54;27.18;68.86
67799;SHT30;54596;43.216;27.904;2022-08-04T11:58:22;27.35;69.13
67799;SHT30;54596;43.216;27.904;2022-08-04T12:11:51;27.14;69.12
67799;SHT30;54596;43.216;27.904;2022-08-04T12:17:03;27.17;68.67
67799;SHT30;54596;43.216;27.904;2022-08-04T12:22:08;27.13;69.40
67799;SHT30;54596;43.216;27.904;2022-08-04T12:24:40;27.02;69.50
67799;SHT30;54596;43.216;27.904;2022-08-04T12:27:14;26.95;69.71
67799;SHT30;54596;43.216;27.904;2022-08-04T12:29:41;27.02;69.61
67799;SHT30;54596;43.216;27.904;2022-08-04T12:32:31;27.04;69.73
67799;SHT30;54596;43.216;27.904;2022-08-04T12:37:46;27.09;69.13
67799;SHT30;54596;43.216;27.904;2022-08-04T12:40:17;27.07;69.64
67799;SHT30;54596;43.216;27.904;2022-08-04T12:45:16;26.89;69.91
67799;SHT30;54596;43.216;27.904;2022-08-04T12:47:44;26.74;70.15
67799;SHT30;54596;43.216;27.904;2022-08-04T12:50:13;26.55;71.01
67799;SHT30;54596;43.216;27.904;2022-08-04T12:52:53;26.47;71.74
67799;SHT30;54596;43.216;27.904;2022-08-04T12:55:23;26.61;71.18
67799;SHT30;54596;43.216;27.904;2022-08-04T12:57:50;26.61;71.12
67799;SHT30;54596;43.216;27.904;2022-08-04T13:00:33;26.71;71.15
67799;SHT30;54596;43.216;27.904;2022-08-04T13:03:04;26.83;71.28
67799;SHT30;54596;43.216;27.904;2022-08-04T13:05:32;26.95;70.71
67799;SHT30;54596;43.216;27.904;2022-08-04T13:08:00;26.95;70.37
67799;SHT30;54596;43.216;27.904;2022-08-04T13:10:27;26.79;69.60
67799;SHT30;54596;43.216;27.904;2022-08-04T13:12:58;26.86;70.28
67799;SHT30;54596;43.216;27.904;2022-08-04T13:15:26;26.67;69.82
67799;SHT30;54596;43.216;27.904;2022-08-04T13:20:30;26.85;70.11
67799;SHT30;54596;43.216;27.904;2022-08-04T13:23:04;26.89;69.59
67799;SHT30;54596;43.216;27.904;2022-08-04T13:25:30;26.81;70.45
67799;SHT30;54596;43.216;27.904;2022-08-04T13:28:00;26.88;70.32
67799;SHT30;54596;43.216;27.904;2022-08-04T13:30:27;26.93;70.02
67799;SHT30;54596;43.216;27.904;2022-08-04T13:32:57;26.99;70.13
67799;SHT30;54596;43.216;27.904;2022-08-04T13:35:24;27.00;69.89
67799;SHT30;54596;43.216;27.904;2022-08-04T13:37:51;26.96;69.07
67799;SHT30;54596;43.216;27.904;2022-08-04T13:40:21;26.76;69.70
67799;SHT30;54596;43.216;27.904;2022-08-04T13:42:50;26.65;70.41
67799;SHT30;54596;43.216;27.904;2022-08-04T13:45:20;26.64;69.57
67799;SHT30;54596;43.216;27.904;2022-08-04T13:47:48;26.68;69.73
67799;SHT30;54596;43.216;27.904;2022-08-04T13:50:34;26.59;69.70
67799;SHT30;54596;43.216;27.904;2022-08-04T13:53:01;26.61;70.01
67799;SHT30;54596;43.216;27.904;2022-08-04T13:55:30;26.71;69.71
67799;SHT30;54596;43.216;27.904;2022-08-04T13:58:01;26.79;69.01
67799;SHT30;54596;43.216;27.904;2022-08-04T14:00:40;26.69;68.65
67799;SHT30;54596;43.216;27.904;2022-08-04T14:03:07;26.76;68.63
67799;SHT30;54596;43.216;27.904;2022-08-04T14:05:33;26.76;68.94
67799;SHT30;54596;43.216;27.904;2022-08-04T14:08:08;26.74;69.48
67799;SHT30;54596;43.216;27.904;2022-08-04T14:10:36;26.74;69.24
67799;SHT30;54596;43.216;27.904;2022-08-04T14:13:04;26.61;69.48
67799;SHT30;54596;43.216;27.904;2022-08-04T14:15:42;26.62;69.77
67799;SHT30;54596;43.216;27.904;2022-08-04T14:18:23;26.68;69.61
67799;SHT30;54596;43.216;27.904;2022-08-04T14:20:58;26.65;69.89
67799;SHT30;54596;43.216;27.904;2022-08-04T14:23:25;26.65;69.76
67799;SHT30;54596;43.216;27.904;2022-08-04T14:25:51;26.57;70.05
67799;SHT30;54596;43.216;27.904;2022-08-04T14:28:27;26.49;70.22
67799;SHT30;54596;43.216;27.904;2022-08-04T14:31:17;26.57;70.46
67799;SHT30;54596;43.216;27.904;2022-08-04T14:33:44;26.55;70.44
67799;SHT30;54596;43.216;27.904;2022-08-04T14:36:11;26.51;70.81
67799;SHT30;54596;43.216;27.904;2022-08-04T14:41:14;26.44;70.42
67799;SHT30;54596;43.216;27.904;2022-08-04T14:43:55;26.48;70.84
67799;SHT30;54596;43.216;27.904;2022-08-04T14:46:23;26.45;71.11
67799;SHT30;54596;43.216;27.904;2022-08-04T14:49:06;26.45;70.86
67799;SHT30;54596;43.216;27.904;2022-08-04T14:51:42;26.34;71.27
67799;SHT30;54596;43.216;27.904;2022-08-04T14:54:13;26.29;71.49
67799;SHT30;54596;43.216;27.904;2022-08-04T14:56:39;26.23;71.89
67799;SHT30;54596;43.216;27.904;2022-08-04T14:59:10;26.27;72.12
67799;SHT30;54596;43.216;27.904;2022-08-04T15:01:37;26.31;72.04
67799;SHT30;54596;43.216;27.904;2022-08-04T15:04:04;26.37;71.78
67799;SHT30;54596;43.216;27.904;2022-08-04T15:06:31;26.43;71.44
67799;SHT30;54596;43.216;27.904;2022-08-04T15:09:04;26.43;71.73
67799;SHT30;54596;43.216;27.904;2022-08-04T15:11:32;26.33;71.87
67799;SHT30;54596;43.216;27.904;2022-08-04T15:13:58;26.33;72.05
67799;SHT30;54596;43.216;27.904;2022-08-04T15:16:28;26.27;72.42
67799;SHT30;54596;43.216;27.904;2022-08-04T15:18:54;26.26;72.58
67799;SHT30;54596;43.216;27.904;2022-08-04T15:21:21;26.23;72.67
67799;SHT30;54596;43.216;27.904;2022-08-04T15:23:47;26.30;72.53
67799;SHT30;54596;43.216;27.904;2022-08-04T15:26:27;26.27;72.00
67799;SHT30;54596;43.216;27.904;2022-08-04T15:29:05;26.19;72.62
67799;SHT30;54596;43.216;27.904;2022-08-04T15:31:36;26.23;73.06
67799;SHT30;54596;43.216;27.904;2022-08-04T15:34:04;26.17;72.27
67799;SHT30;54596;43.216;27.904;2022-08-04T15:36:37;26.23;72.21
67799;SHT30;54596;43.216;27.904;2022-08-04T15:39:20;26.13;72.15
67799;SHT30;54596;43.216;27.904;2022-08-04T15:47:24;26.02;72.91
67799;SHT30;54596;43.216;27.904;2022-08-04T15:53:00;26.04;73.04
67799;SHT30;54596;43.216;27.904;2022-08-04T15:55:40;26.02;73.29
67799;SHT30;54596;43.216;27.904;2022-08-04T15:58:10;25.93;73.10
67799;SHT30;54596;43.216;27.904;2022-08-04T16:21:57;25.74;74.17
67799;SHT30;54596;43.216;27.904;2022-08-04T16:24:33;25.69;74.42
67799;SHT30;54596;43.216;27.904;2022-08-04T16:27:09;25.75;74.57
67799;SHT30;54596;43.216;27.904;2022-08-04T16:34:39;25.65;75.30
67799;SHT30;54596;43.216;27.904;2022-08-04T16:37:08;25.71;75.25
67799;SHT30;54596;43.216;27.904;2022-08-04T16:39:34;25.72;75.13
67799;SHT30;54596;43.216;27.904;2022-08-04T16:45:09;25.57;75.83
67799;SHT30;54596;43.216;27.904;2022-08-04T16:50:21;25.52;76.06
67799;SHT30;54596;43.216;27.904;2022-08-04T16:52:50;25.50;76.07
67799;SHT30;54596;43.216;27.904;2022-08-04T16:55:20;25.47;76.06
67799;SHT30;54596;43.216;27.904;2022-08-04T16:57:47;25.48;75.45
67799;SHT30;54596;43.216;27.904;2022-08-04T17:00:13;25.41;75.62
67799;SHT30;54596;43.216;27.904;2022-08-04T17:02:39;25.43;75.90
67799;SHT30;54596;43.216;27.904;2022-08-04T17:05:19;25.35;76.27
67799;SHT30;54596;43.216;27.904;2022-08-04T17:07:55;25.34;76.34
67799;SHT30;54596;43.216;27.904;2022-08-04T17:10:43;25.24;76.77
67799;SHT30;54596;43.216;27.904;2022-08-04T17:13:26;25.26;76.85
67799;SHT30;54596;43.216;27.904;2022-08-04T17:15:55;25.28;76.83
67799;SHT30;54596;43.216;27.904;2022-08-04T17:18:24;25.27;76.86
67799;SHT30;54596;43.216;27.904;2022-08-04T17:20:51;25.24;77.14
67799;SHT30;54596;43.216;27.904;2022-08-04T17:23:23;25.20;77.43
67799;SHT30;54596;43.216;27.904;2022-08-04T17:28:31;25.19;77.78
67799;SHT30;54596;43.216;27.904;2022-08-04T17:30:59;25.15;77.94
67799;SHT30;54596;43.216;27.904;2022-08-04T17:33:25;25.10;78.06
67799;SHT30;54596;43.216;27.904;2022-08-04T17:35:52;25.12;77.79
67799;SHT30;54596;43.216;27.904;2022-08-04T17:38:20;25.07;77.80
67799;SHT30;54596;43.216;27.904;2022-08-04T17:40:55;25.05;77.78
67799;SHT30;54596;43.216;27.904;2022-08-04T17:43:34;25.05;77.88
67799;SHT30;54596;43.216;27.904;2022-08-04T17:46:17;25.09;78.03
67799;SHT30;54596;43.216;27.904;2022-08-04T17:48:44;25.06;78.17
67799;SHT30;54596;43.216;27.904;2022-08-04T17:51:14;24.99;78.37
67799;SHT30;54596;43.216;27.904;2022-08-04T17:53:40;25.03;78.47
67799;SHT30;54596;43.216;27.904;2022-08-04T17:56:26;25.06;78.46
67799;SHT30;54596;43.216;27.904;2022-08-04T18:12:26;25.00;78.95
67799;SHT30;54596;43.216;27.904;2022-08-04T18:14:46;25.00;79.06
67799;SHT30;54596;43.216;27.904;2022-08-04T18:17:13;24.98;79.13
67799;SHT30;54596;43.216;27.904;2022-08-04T18:19:50;24.96;78.88
67799;SHT30;54596;43.216;27.904;2022-08-04T18:22:17;24.93;78.96
67799;SHT30;54596;43.216;27.904;2022-08-04T18:24:42;24.93;78.96
67799;SHT30;54596;43.216;27.904;2022-08-04T18:27:08;24.92;78.95
67799;SHT30;54596;43.216;27.904;2022-08-04T18:29:34;24.90;78.90
67799;SHT30;54596;43.216;27.904;2022-08-04T18:32:00;24.95;78.60
67799;SHT30;54596;43.216;27.904;2022-08-04T18:34:25;24.95;78.79
67799;SHT30;54596;43.216;27.904;2022-08-04T18:36:51;24.96;78.67
67799;SHT30;54596;43.216;27.904;2022-08-04T18:39:17;24.98;78.78
67799;SHT30;54596;43.216;27.904;2022-08-04T18:41:44;25.03;78.62
67799;SHT30;54596;43.216;27.904;2022-08-04T18:44:11;25.05;78.58
67799;SHT30;54596;43.216;27.904;2022-08-04T18:46:36;25.09;78.38
67799;SHT30;54596;43.216;27.904;2022-08-04T18:49:02;25.09;78.55
67799;SHT30;54596;43.216;27.904;2022-08-04T18:51:28;25.07;78.27
67799;SHT30;54596;43.216;27.904;2022-08-04T18:53:53;25.09;78.46
67799;SHT30;54596;43.216;27.904;2022-08-04T18:56:18;25.06;78.47
67799;SHT30;54596;43.216;27.904;2022-08-04T18:58:44;25.07;78.40
67799;SHT30;54596;43.216;27.904;2022-08-04T19:01:10;25.07;78.17
67799;SHT30;54596;43.216;27.904;2022-08-04T19:03:38;25.06;78.33
67799;SHT30;54596;43.216;27.904;2022-08-04T19:06:04;25.05;78.19
67799;SHT30;54596;43.216;27.904;2022-08-04T19:08:29;25.03;78.33
67799;SHT30;54596;43.216;27.904;2022-08-04T19:10:55;25.05;78.46
67799;SHT30;54596;43.216;27.904;2022-08-04T19:13:21;25.00;78.44
67799;SHT30;54596;43.216;27.904;2022-08-04T19:15:46;24.96;78.57
67799;SHT30;54596;43.216;27.904;2022-08-04T19:18:12;24.95;78.52
67799;SHT30;54596;43.216;27.904;2022-08-04T19:20:37;24.96;78.57
67799;SHT30;54596;43.216;27.904;2022-08-04T19:23:03;24.90;78.79
67799;SHT30;54596;43.216;27.904;2022-08-04T19:25:29;24.88;78.84
67799;SHT30;54596;43.216;27.904;2022-08-04T19:27:55;24.89;78.95
67799;SHT30;54596;43.216;27.904;2022-08-04T19:30:20;24.88;78.98
67799;SHT30;54596;43.216;27.904;2022-08-04T19:32:46;24.82;79.47
67799;SHT30;54596;43.216;27.904;2022-08-04T19:35:11;24.75;80.50
67799;SHT30;54596;43.216;27.904;2022-08-04T19:37:37;24.69;80.58
67799;SHT30;54596;43.216;27.904;2022-08-04T19:40:04;24.69;80.66
67799;SHT30;54596;43.216;27.904;2022-08-04T19:42:30;24.69;80.66
67799;SHT30;54596;43.216;27.904;2022-08-04T19:44:56;24.73;80.66
67799;SHT30;54596;43.216;27.904;2022-08-04T19:47:21;24.75;80.59
67799;SHT30;54596;43.216;27.904;2022-08-04T19:49:46;24.76;80.44
67799;SHT30;54596;43.216;27.904;2022-08-04T19:52:12;24.79;80.30
67799;SHT30;54596;43.216;27.904;2022-08-04T19:54:37;24.79;80.09
67799;SHT30;54596;43.216;27.904;2022-08-04T19:57:04;24.82;80.02
67799;SHT30;54596;43.216;27.904;2022-08-04T19:59:29;24.83;79.82
67799;SHT30;54596;43.216;27.904;2022-08-04T20:01:54;24.79;79.82
67799;SHT30;54596;43.216;27.904;2022-08-04T20:04:20;24.76;79.74
67799;SHT30;54596;43.216;27.904;2022-08-04T20:06:45;24.76;79.91
67799;SHT30;54596;43.216;27.904;2022-08-04T20:09:11;24.76;79.64
67799;SHT30;54596;43.216;27.904;2022-08-04T20:11:37;24.73;79.98
67799;SHT30;54596;43.216;27.904;2022-08-04T20:14:02;24.75;79.66
67799;SHT30;54596;43.216;27.904;2022-08-04T20:16:28;24.69;79.67
67799;SHT30;54596;43.216;27.904;2022-08-04T20:18:53;24.71;79.76
67799;SHT30;54596;43.216;27.904;2022-08-04T20:21:19;24.69;80.00
67799;SHT30;54596;43.216;27.904;2022-08-04T20:23:44;24.60;80.23
67799;SHT30;54596;43.216;27.904;2022-08-04T20:26:10;24.58;80.12